Hlavní strana
METAR-TAF:

METAR-TAF

Letiště :

Groznyj, Rusko

zeměpisná šířka: 43-23-18N, zeměpisná délka: 045-41-59E, výška: 167 m

Aktuální stav počasí

Zpráva byla vytvořena před 14 minutami, v 07:00 UTC
Východojihovýchodní vítr 4 kt
Teplota 25°C
Vlhkost vzduchu 57%
Tlak 1008 hPa
Viditelnost 10 km a více
Žádná oblačnost pod 1500 m, nevyskytují se cumulonimby.

METAR: URMG 290700Z 11002MPS CAVOK 25/16 Q1008 R08/090070 NOSIG RMK QFE741/0988

Čas: 10:14 (07:14 UTC)

Předpověď počasí

Zpráva byla vytvořena před 2 hodinami a 14 minutami, v 05:00 UTC
Předpověď platná od 29 v 06 UTC do 29 v 15 UTC
Východní vítr 6 kt s nárazy do 16 kt
Viditelnost 10 km a více
Polojasno ve výšce 3000 ft
Dočasný
od 29 v 09 UTC do 29 v 15 UTC
Viditelnost: 6000 m
Oblačno až skoro zataženo ve výšce 2000 ft, Cumulonimbus.
slabé dešťové přeháňky

TAF: URMG 290500Z 2906/2915 09003G08MPS 9999 SCT030 TEMPO 2909/2915 6000 -SHRA BKN020CB

Stav a předpovědi počasí z více než 4 000 letišť (zprávy METAR a TAF).

Červené a žluté tečky na mapě představují dostupné meteorologické stanice.

Když kurzor umístíte na tečku, zobrazí se název stanice.

Pak kliknutím zobrazíte stav a předpověď počasí.

Chcete-li změnit mapu, kliknutím na zelené tlačítko se znaménkem +mapu přiblížíte, kliknutím na zelené tlačítko se znaménkem – mapu oddálíte a kliknutím na zelené šipky přejdete na sousední mapy.


METAR-TAF: